Time;durP1;ratioP1;P1;durP2;ratioP2;P2;SDS_P1;SDS_P2;PMS_P1;PMS_P2;Temp;Humidity;BMP_temperature;BMP_pressure;BME280_temperature;BME280_humidity;BME280_pressure;Samples;Min_cycle;Max_cycle;Signal;HPM_P1;HPM_P2
2021/04/16 00:01:45;;;;;;;14.45;9.40;;;;;;;8.91;93.66;98434.93;1764862;80;21278;-56
2021/04/16 00:04:13;;;;;;;13.45;8.53;;;;;;;8.88;93.70;98432.34;1764983;80;21144;-58
2021/04/16 00:06:42;;;;;;;14.30;9.10;;;;;;;8.84;93.66;98428.00;1764948;80;21266;-56
2021/04/16 00:09:10;;;;;;;15.13;9.33;;;;;;;8.83;93.72;98430.58;1764707;80;21163;-54
2021/04/16 00:11:39;;;;;;;15.88;8.88;;;;;;;8.81;93.84;98425.41;1764756;80;21151;-57
2021/04/16 00:14:08;;;;;;;11.60;8.88;;;;;;;8.77;93.86;98427.50;1764659;80;21310;-56
2021/04/16 00:16:35;;;;;;;12.88;8.88;;;;;;;8.75;94.02;98427.94;1764912;80;21712;-56
2021/04/16 00:19:04;;;;;;;14.93;9.65;;;;;;;8.74;94.12;98422.33;1764614;80;21275;-59
2021/04/16 00:21:32;;;;;;;10.98;8.63;;;;;;;8.71;94.09;98426.16;1764662;80;21317;-57
2021/04/16 00:24:00;;;;;;;11.75;8.30;;;;;;;8.69;94.27;98426.56;1764609;80;21128;-57
2021/04/16 00:26:29;;;;;;;10.60;7.83;;;;;;;8.67;94.36;98423.11;1764607;80;21155;-55
2021/04/16 00:28:57;;;;;;;10.00;7.37;;;;;;;8.64;94.43;98425.23;1764881;80;21321;-56
2021/04/16 00:31:30;;;;;;;11.45;9.00;;;;;;;8.63;94.51;98421.38;1764645;80;21298;-59
2021/04/16 00:34:00;;;;;;;13.15;8.63;;;;;;;8.62;94.54;98418.34;1764766;80;21179;-57
2021/04/16 00:36:30;;;;;;;10.50;7.03;;;;;;;8.60;94.61;98423.89;1764751;80;21167;-57
2021/04/16 00:38:58;;;;;;;9.93;5.95;;;;;;;8.61;94.71;98421.35;1764607;80;21313;-57
2021/04/16 00:41:30;;;;;;;8.05;5.83;;;;;;;8.69;94.78;98420.14;1764601;81;21132;-57
2021/04/16 00:43:58;;;;;;;8.70;5.12;;;;;;;8.73;94.56;98416.76;1764939;80;21159;-58
2021/04/16 00:46:42;;;;;;;7.80;5.58;;;;;;;8.71;94.36;98418.45;1764724;80;21132;-58
2021/04/16 00:49:16;;;;;;;9.28;4.83;;;;;;;8.67;94.44;98416.25;1743274;80;21634;-59
2021/04/16 00:51:51;;;;;;;7.67;5.45;;;;;;;8.67;94.39;98418.82;1744013;81;21156;-58
2021/04/16 00:54:23;;;;;;;8.95;5.58;;;;;;;8.68;94.29;98421.86;1764682;80;21289;-57
2021/04/16 00:56:52;;;;;;;6.45;4.80;;;;;;;8.66;94.17;98421.40;1755383;82;21316;-57
2021/04/16 00:59:26;;;;;;;6.78;4.58;;;;;;;8.61;94.12;98416.63;1755400;80;21176;-58
2021/04/16 01:01:58;;;;;;;7.37;4.97;;;;;;;8.56;94.17;98420.88;1727718;82;21169;-57
2021/04/16 01:04:30;;;;;;;7.28;5.30;;;;;;;8.53;94.21;98420.84;1755766;82;21727;-57
2021/04/16 01:07:00;;;;;;;7.85;4.70;;;;;;;8.51;94.29;98421.25;1755789;82;21153;-57
2021/04/16 01:09:29;;;;;;;8.95;5.05;;;;;;;8.50;94.32;98424.25;1755671;82;21160;-57
2021/04/16 01:12:07;;;;;;;6.80;4.80;;;;;;;8.48;94.40;98421.65;1755564;82;21157;-56
2021/04/16 01:14:39;;;;;;;7.30;4.65;;;;;;;8.53;94.46;98425.98;1755305;81;21097;-59
2021/04/16 01:17:09;;;;;;;9.50;4.92;;;;;;;8.54;94.44;98424.70;1755591;82;21177;-57
2021/04/16 01:19:49;;;;;;;7.60;5.55;;;;;;;8.56;94.40;98420.88;1755366;82;21318;-55
2021/04/16 01:22:27;;;;;;;8.70;5.78;;;;;;;8.58;94.32;98421.33;1755415;82;21133;-59
2021/04/16 01:24:59;;;;;;;8.95;5.75;;;;;;;8.56;94.12;98424.30;1755364;82;21101;-55
2021/04/16 01:27:29;;;;;;;7.95;4.90;;;;;;;8.54;94.16;98424.70;1726986;82;21369;-56
2021/04/16 01:30:04;;;;;;;8.90;5.25;;;;;;;8.58;94.24;98423.04;1755380;82;21306;-55
2021/04/16 01:32:35;;;;;;;9.15;4.78;;;;;;;8.61;94.07;98420.49;1755254;80;21133;-58
2021/04/16 01:35:12;;;;;;;8.35;4.97;;;;;;;8.64;93.98;98420.52;1755575;82;21177;-58
2021/04/16 01:37:41;;;;;;;8.58;5.08;;;;;;;8.57;93.70;98413.58;1755345;82;21125;-56
2021/04/16 01:40:12;;;;;;;8.05;4.83;;;;;;;8.55;93.79;98409.73;1755505;80;21177;-58
2021/04/16 01:42:41;;;;;;;6.58;4.87;;;;;;;8.63;93.73;98412.38;1755443;80;21152;-57
2021/04/16 01:45:24;;;;;;;8.20;4.50;;;;;;;8.66;93.49;98412.39;1755435;80;21280;-56
2021/04/16 01:47:59;;;;;;;6.12;4.20;;;;;;;8.64;93.24;98417.52;1755430;82;21265;-53
2021/04/16 01:50:29;;;;;;;5.90;4.22;;;;;;;8.57;93.12;98422.58;1755518;82;21287;-55
2021/04/16 01:53:01;;;;;;;6.87;4.78;;;;;;;8.55;93.26;98412.70;1755422;82;21286;-58
2021/04/16 01:55:28;;;;;;;6.17;3.87;;;;;;;8.57;93.23;98420.02;1758490;79;21290;-57
2021/04/16 01:57:56;;;;;;;6.37;4.10;;;;;;;8.63;93.20;98413.66;1764988;80;21325;-56
2021/04/16 02:00:31;;;;;;;7.12;3.92;;;;;;;8.71;93.02;98412.45;1764928;80;21380;-57
2021/04/16 02:03:01;;;;;;;6.15;4.45;;;;;;;8.74;92.57;98410.75;1764655;80;21128;-59
2021/04/16 02:05:29;;;;;;;6.80;4.50;;;;;;;8.66;92.43;98411.11;1764827;80;21152;-57
2021/04/16 02:07:57;;;;;;;7.87;4.30;;;;;;;8.63;92.55;98412.38;1764905;81;21195;-59
2021/04/16 02:10:25;;;;;;;6.87;4.83;;;;;;;8.58;92.36;98407.18;1764883;80;21203;-58
2021/04/16 02:12:54;;;;;;;7.62;4.78;;;;;;;8.56;92.47;98407.58;1764845;80;21594;-57
2021/04/16 02:15:22;;;;;;;5.60;3.98;;;;;;;8.52;92.43;98406.24;1836529;77;21264;-56
2021/04/16 02:17:49;;;;;;;8.48;4.70;;;;;;;8.47;92.56;98407.48;1855105;77;21126;-57
2021/04/16 02:20:22;;;;;;;8.28;4.70;;;;;;;8.43;92.60;98413.02;1855167;77;21111;-57
2021/04/16 02:22:50;;;;;;;9.25;4.47;;;;;;;8.46;92.74;98405.33;1855189;77;21220;-56
2021/04/16 02:25:18;;;;;;;8.68;4.40;;;;;;;8.47;92.60;98405.80;1782967;80;21165;-58
2021/04/16 02:27:46;;;;;;;6.70;5.03;;;;;;;8.47;92.58;98411.33;1784871;80;21162;-57
2021/04/16 02:30:32;;;;;;;6.15;4.00;;;;;;;8.48;92.47;98408.79;1783128;80;21158;-58
2021/04/16 02:32:59;;;;;;;7.33;4.33;;;;;;;8.42;92.34;98408.73;1783736;80;21233;-59
2021/04/16 02:35:28;;;;;;;6.40;4.40;;;;;;;8.32;92.55;98406.00;1783062;80;21187;-57
2021/04/16 02:37:56;;;;;;;7.15;4.80;;;;;;;8.31;92.73;98412.00;1784604;80;21297;-57
2021/04/16 02:40:27;;;;;;;6.50;4.30;;;;;;;8.31;92.79;98406.86;1782968;80;21272;-56
2021/04/16 02:42:55;;;;;;;7.12;5.00;;;;;;;8.28;92.87;98403.83;1784702;80;21581;-56
2021/04/16 02:45:27;;;;;;;8.20;5.17;;;;;;;8.30;92.95;98403.86;1783030;80;21158;-58
2021/04/16 02:47:55;;;;;;;6.80;4.45;;;;;;;8.30;92.93;98407.28;1784624;80;21158;-57
2021/04/16 02:50:28;;;;;;;7.25;4.80;;;;;;;8.29;92.94;98405.97;1782994;80;21273;-60
2021/04/16 02:52:56;;;;;;;6.10;4.00;;;;;;;8.27;93.03;98408.55;1784774;80;21296;-56
2021/04/16 02:55:25;;;;;;;6.28;4.25;;;;;;;8.21;93.21;98408.03;1783537;80;21153;-56
2021/04/16 02:57:54;;;;;;;8.63;5.10;;;;;;;8.19;93.40;98405.00;1789250;80;21182;-54
2021/04/16 03:00:27;;;;;;;9.03;5.22;;;;;;;8.18;93.44;98412.28;1785688;80;21324;-57
2021/04/16 03:02:56;;;;;;;8.05;5.03;;;;;;;8.15;93.60;98407.97;1789319;80;21194;-58
2021/04/16 03:05:24;;;;;;;5.97;4.22;;;;;;;8.16;93.67;98409.68;1785883;80;21124;-58
2021/04/16 03:07:55;;;;;;;8.93;4.62;;;;;;;8.19;93.67;98406.28;1789482;80;21604;-56
2021/04/16 03:10:29;;;;;;;7.15;4.65;;;;;;;8.19;93.63;98407.56;1785711;80;21300;-59
2021/04/16 03:12:56;;;;;;;7.55;4.75;;;;;;;8.21;93.72;98407.17;1789477;80;21154;-59
2021/04/16 03:15:25;;;;;;;7.05;4.90;;;;;;;8.21;93.55;98405.88;1785903;80;21114;-58
2021/04/16 03:17:54;;;;;;;6.58;4.60;;;;;;;8.23;93.58;98409.34;1789258;80;21135;-56
2021/04/16 03:20:24;;;;;;;7.62;4.67;;;;;;;8.24;93.52;98413.23;1785686;80;21205;-57
2021/04/16 03:22:51;;;;;;;6.55;4.37;;;;;;;8.28;93.37;98402.97;1789299;80;21147;-55
2021/04/16 03:25:20;;;;;;;7.10;4.53;;;;;;;8.29;93.20;98411.11;1785946;80;21220;-57
2021/04/16 03:27:47;;;;;;;6.50;4.00;;;;;;;8.30;93.09;98409.86;1789408;80;21324;-56
2021/04/16 03:30:22;;;;;;;6.47;4.45;;;;;;;8.28;92.77;98411.54;1785958;80;21126;-54
2021/04/16 03:32:51;;;;;;;6.67;4.35;;;;;;;8.22;92.69;98415.34;1789331;80;21134;-58
2021/04/16 03:35:21;;;;;;;6.55;4.55;;;;;;;8.10;92.74;98413.91;1785918;80;21220;-54
2021/04/16 03:37:52;;;;;;;6.27;4.20;;;;;;;8.09;92.91;98414.73;1789742;80;21573;-56
2021/04/16 03:40:25;;;;;;;6.90;5.33;;;;;;;8.08;92.91;98415.59;1785876;80;21330;-57
2021/04/16 03:42:54;;;;;;;7.20;4.75;;;;;;;8.07;92.97;98414.73;1789270;80;21569;-57
2021/04/16 03:45:23;;;;;;;8.48;4.67;;;;;;;8.08;92.96;98411.73;1785790;80;21182;-56
2021/04/16 03:47:52;;;;;;;6.92;4.50;;;;;;;8.09;92.92;98417.30;1789589;80;21287;-57
2021/04/16 03:50:26;;;;;;;7.33;5.08;;;;;;;8.08;92.88;98410.45;1785745;80;21166;-59
2021/04/16 03:52:55;;;;;;;7.47;4.47;;;;;;;8.08;93.03;98413.02;1789511;80;21162;-56
2021/04/16 03:55:27;;;;;;;6.05;4.30;;;;;;;8.16;92.98;98417.39;1785806;80;21154;-53
2021/04/16 03:57:56;;;;;;;6.72;4.12;;;;;;;8.24;92.65;98417.48;1851809;77;21165;-55
2021/04/16 04:00:30;;;;;;;7.65;4.00;;;;;;;8.23;92.40;98413.20;1851547;77;21146;-58
2021/04/16 04:02:59;;;;;;;6.42;4.45;;;;;;;8.21;92.28;98418.73;1851651;77;21162;-58
2021/04/16 04:05:28;;;;;;;7.55;5.62;;;;;;;8.20;92.23;98416.59;1779871;80;21178;-56
2021/04/16 04:07:55;;;;;;;7.15;4.25;;;;;;;8.18;92.10;98419.99;1851596;77;21312;-56
2021/04/16 04:10:26;;;;;;;8.88;3.77;;;;;;;8.22;92.09;98417.91;1851639;77;21142;-57
2021/04/16 04:12:54;;;;;;;5.95;3.90;;;;;;;8.28;91.81;98423.53;1851594;77;21166;-57
2021/04/16 04:15:22;;;;;;;5.70;4.20;;;;;;;8.32;91.59;98417.56;1851582;77;21134;-62
2021/04/16 04:17:51;;;;;;;7.17;4.60;;;;;;;8.32;91.47;98424.88;1779810;80;21146;-60
2021/04/16 04:20:24;;;;;;;7.08;4.35;;;;;;;8.33;91.38;98421.45;1780114;81;21332;-57
2021/04/16 04:22:52;;;;;;;6.62;3.80;;;;;;;8.36;91.30;98418.91;1780065;80;21182;-57
2021/04/16 04:25:23;;;;;;;6.70;4.00;;;;;;;8.43;91.28;98425.88;1779920;80;21146;-57
2021/04/16 04:27:52;;;;;;;6.37;4.00;;;;;;;8.46;90.97;98425.91;1780159;81;21608;-57
2021/04/16 04:30:25;;;;;;;7.92;4.22;;;;;;;8.53;90.99;98429.42;1779889;81;21143;-55
2021/04/16 04:32:54;;;;;;;7.92;4.17;;;;;;;8.63;90.52;98423.95;1851783;77;21291;-60
2021/04/16 04:35:24;;;;;;;5.97;4.33;;;;;;;8.69;90.28;98424.85;1780251;80;21139;-56
2021/04/16 04:37:51;;;;;;;6.22;3.90;;;;;;;8.75;89.88;98426.65;1780284;80;21146;-58
2021/04/16 04:40:23;;;;;;;5.42;4.08;;;;;;;8.73;89.58;98426.16;1852150;77;21122;-57
2021/04/16 04:42:50;;;;;;;6.43;4.13;;;;;;;8.78;89.60;98424.53;1852167;77;21264;-57
2021/04/16 04:45:19;;;;;;;7.08;3.60;;;;;;;8.88;89.32;98424.62;1851987;77;21118;-59
2021/04/16 04:47:48;;;;;;;6.05;3.58;;;;;;;9.00;88.96;98433.28;1852049;77;21281;-56
2021/04/16 04:50:18;;;;;;;6.70;3.77;;;;;;;9.08;88.21;98429.05;1851918;77;21428;-60
2021/04/16 04:52:46;;;;;;;4.85;3.22;;;;;;;9.03;87.98;98430.73;1851735;77;21201;-57
2021/04/16 04:55:20;;;;;;;6.42;3.70;;;;;;;9.00;87.93;98433.28;1779970;80;21304;-57
2021/04/16 04:57:47;;;;;;;8.00;4.45;;;;;;;9.03;88.02;98433.30;1785173;80;21226;-59
2021/04/16 05:00:17;;;;;;;5.70;3.62;;;;;;;9.12;87.62;98432.10;1789571;80;21146;-60
2021/04/16 05:02:45;;;;;;;5.95;4.10;;;;;;;9.05;87.02;98426.45;1785888;80;21324;-60
2021/04/16 05:05:16;;;;;;;7.78;4.53;;;;;;;8.96;87.21;98423.83;1789380;80;21170;-60
2021/04/16 05:07:43;;;;;;;6.08;3.80;;;;;;;8.95;87.26;98428.52;1785781;80;21162;-58
2021/04/16 05:10:14;;;;;;;5.67;3.77;;;;;;;8.93;87.12;98425.06;1789591;80;21119;-59
2021/04/16 05:12:41;;;;;;;8.85;3.87;;;;;;;8.93;87.34;98429.81;1785763;80;21138;-57
2021/04/16 05:15:11;;;;;;;5.83;3.70;;;;;;;8.95;87.14;98425.95;1789361;80;21312;-59
2021/04/16 05:17:39;;;;;;;5.87;3.95;;;;;;;8.91;86.85;98425.92;1785756;80;21166;-56
2021/04/16 05:20:09;;;;;;;6.70;4.00;;;;;;;8.88;87.07;98425.91;1789611;80;21146;-58
2021/04/16 05:22:37;;;;;;;7.47;4.12;;;;;;;8.94;86.99;98426.80;1785778;80;21153;-59
2021/04/16 05:25:06;;;;;;;6.05;3.62;;;;;;;9.05;87.15;98425.17;1789452;80;21169;-58
2021/04/16 05:27:34;;;;;;;5.22;3.47;;;;;;;9.23;86.92;98422.73;1785931;80;21162;-60
2021/04/16 05:30:04;;;;;;;7.28;3.95;;;;;;;9.34;86.31;98418.55;1789381;80;21114;-58
2021/04/16 05:32:32;;;;;;;5.55;3.35;;;;;;;9.34;86.10;98427.56;1785720;80;21158;-57
2021/04/16 05:35:00;;;;;;;7.47;4.17;;;;;;;9.40;86.03;98424.16;1789648;80;21186;-58
2021/04/16 05:37:28;;;;;;;5.28;3.72;;;;;;;9.53;85.67;98425.95;1785964;80;21153;-59
2021/04/16 05:39:56;;;;;;;7.75;4.17;;;;;;;9.60;85.31;98425.58;1789562;80;21226;-58
2021/04/16 05:42:24;;;;;;;8.05;3.72;;;;;;;9.56;85.00;98424.68;1785720;80;21296;-59
2021/04/16 05:44:54;;;;;;;4.95;3.50;;;;;;;9.51;84.74;98419.92;1789333;80;21312;-58
2021/04/16 05:47:21;;;;;;;5.55;3.67;;;;;;;9.40;84.72;98425.88;1786041;80;21177;-60
2021/04/16 05:49:49;;;;;;;6.80;4.03;;;;;;;9.34;84.93;98424.13;1789551;80;21146;-59
2021/04/16 05:52:17;;;;;;;7.17;3.98;;;;;;;9.34;84.94;98427.98;1785739;80;21157;-58
2021/04/16 05:54:45;;;;;;;6.70;4.45;;;;;;;9.30;85.03;98425.80;1789613;80;21170;-60
2021/04/16 05:57:13;;;;;;;7.08;4.45;;;;;;;9.33;85.16;98429.67;1782740;80;21299;-59
2021/04/16 05:59:41;;;;;;;7.78;4.70;;;;;;;9.34;85.06;98431.42;1851856;77;21291;-59
2021/04/16 06:02:32;;;;;;;7.03;4.95;;;;;;;9.32;85.25;98433.55;1780248;80;21324;-58
2021/04/16 06:05:03;;;;;;;7.10;4.47;;;;;;;9.38;85.41;98430.15;1779572;80;21288;-59
2021/04/16 06:07:31;;;;;;;9.33;5.90;;;;;;;9.49;85.17;98435.83;1780158;80;21181;-60
2021/04/16 06:10:04;;;;;;;8.68;4.90;;;;;;;9.40;85.06;98429.31;1779916;80;21146;-57
2021/04/16 06:12:32;;;;;;;6.62;4.62;;;;;;;9.29;85.30;98432.24;1779863;80;21739;-58
2021/04/16 06:15:00;;;;;;;8.70;5.60;;;;;;;9.22;85.65;98432.61;1757427;80;21304;-57
2021/04/16 06:17:27;;;;;;;7.47;5.05;;;;;;;9.19;85.75;98434.31;1761668;80;21145;-56
2021/04/16 06:19:55;;;;;;;6.35;4.53;;;;;;;9.14;85.85;98439.42;1748300;82;21264;-59
2021/04/16 06:22:22;;;;;;;7.17;4.90;;;;;;;9.12;86.13;98435.96;1748400;82;21142;-58
2021/04/16 06:24:50;;;;;;;7.85;4.85;;;;;;;9.22;86.24;98434.33;1748307;82;21279;-59
2021/04/16 06:27:19;;;;;;;8.53;4.65;;;;;;;9.34;86.18;98439.14;1748294;81;21138;-59
2021/04/16 06:29:47;;;;;;;9.60;5.65;;;;;;;9.50;85.86;98442.69;1748250;82;21397;-61
2021/04/16 06:32:19;;;;;;;8.95;5.58;;;;;;;9.58;85.59;98441.45;1747958;82;21146;-60
2021/04/16 06:34:48;;;;;;;8.68;5.25;;;;;;;9.64;85.32;98437.64;1754803;81;21620;-57
2021/04/16 06:37:16;;;;;;;8.95;4.65;;;;;;;9.74;85.03;98444.97;1798412;79;21558;-59
2021/04/16 06:39:44;;;;;;;8.75;4.62;;;;;;;9.85;84.71;98446.34;1793999;78;21121;-58
2021/04/16 06:42:18;;;;;;;7.78;4.97;;;;;;;9.93;84.26;98447.24;1798336;79;21099;-57
2021/04/16 06:44:47;;;;;;;9.95;4.85;;;;;;;9.94;83.98;98447.66;1789666;79;21571;-60
2021/04/16 06:47:28;;;;;;;6.67;4.50;;;;;;;9.99;83.73;98452.41;1779673;79;21284;-59
2021/04/16 06:49:59;;;;;;;7.03;4.60;;;;;;;10.04;83.37;98452.44;1779590;79;21163;-59
2021/04/16 06:52:48;;;;;;;12.05;5.20;;;;;;;10.08;83.16;98451.19;1779807;79;21624;-59
2021/04/16 06:55:30;;;;;;;7.35;4.97;;;;;;;10.17;82.84;98447.33;1779665;79;21198;-59
2021/04/16 06:58:18;;;;;;;7.15;4.40;;;;;;;10.21;82.23;98446.50;1789911;80;21747;-60
2021/04/16 07:01:02;;;;;;;7.62;4.75;;;;;;;10.21;81.98;98451.66;1793907;79;21142;-59
2021/04/16 07:03:35;;;;;;;7.05;4.17;;;;;;;10.24;81.69;98455.11;1794956;80;21154;-58
2021/04/16 07:06:24;;;;;;;6.75;4.37;;;;;;;10.31;81.61;98455.61;1794683;79;21154;-60
2021/04/16 07:09:15;;;;;;;7.10;4.55;;;;;;;10.40;81.42;98456.91;1794648;79;21115;-57
2021/04/16 07:11:53;;;;;;;9.63;6.90;;;;;;;10.45;80.35;98459.08;1794349;79;21556;-58
2021/04/16 07:14:29;;;;;;;9.98;7.12;;;;;;;10.45;80.35;98459.08;1794871;79;21134;-58
2021/04/16 07:16:58;;;;;;;9.33;7.00;;;;;;;10.43;80.58;98468.53;1794482;79;21150;-60
2021/04/16 07:19:28;;;;;;;9.55;7.53;;;;;;;10.40;80.65;98464.66;1794588;78;21296;-60
2021/04/16 07:22:03;;;;;;;9.88;7.20;;;;;;;10.38;80.49;98465.95;1799297;77;21142;-60
2021/04/16 07:24:33;;;;;;;11.03;6.15;;;;;;;10.40;80.55;98469.37;1809877;78;21122;-61
2021/04/16 07:27:27;;;;;;;6.60;4.30;;;;;;;10.50;80.36;98466.41;1816823;78;21126;-58
2021/04/16 07:29:58;;;;;;;5.55;3.83;;;;;;;10.57;79.69;98473.31;1811553;78;21102;-57
2021/04/16 07:32:38;;;;;;;6.50;4.45;;;;;;;10.55;79.47;98471.16;1811254;78;21106;-60
2021/04/16 07:35:31;;;;;;;6.12;4.08;;;;;;;10.45;79.54;98469.40;1808348;78;21181;-60
2021/04/16 07:38:16;;;;;;;6.90;4.40;;;;;;;10.51;79.52;98472.02;1794821;79;21134;-60
2021/04/16 07:40:46;;;;;;;6.55;4.42;;;;;;;10.52;79.10;98476.31;1793762;79;21161;-58
2021/04/16 07:43:44;;;;;;;7.42;4.53;;;;;;;10.46;79.15;98469.86;1794718;78;21370;-60
2021/04/16 07:46:29;;;;;;;6.08;4.20;;;;;;;10.48;79.01;98474.59;1812679;78;21151;-59
2021/04/16 07:49:23;;;;;;;6.60;4.42;;;;;;;10.50;78.96;98468.98;1795014;78;21178;-60
2021/04/16 07:51:57;;;;;;;6.10;4.22;;;;;;;10.55;78.80;98476.31;1809363;77;21293;-60
2021/04/16 07:54:30;;;;;;;8.80;4.87;;;;;;;10.56;78.66;98476.77;1808971;78;21185;-59
2021/04/16 07:57:19;;;;;;;7.62;4.78;;;;;;;10.59;78.39;98475.48;1809629;78;21174;-57
2021/04/16 08:00:00;;;;;;;8.33;4.97;;;;;;;10.58;78.31;98481.51;1812016;78;21106;-58
2021/04/16 08:02:36;;;;;;;6.50;4.05;;;;;;;10.57;78.27;98479.77;1811970;78;21114;-59
2021/04/16 08:05:25;;;;;;;8.70;4.90;;;;;;;10.59;78.04;98478.49;1809472;78;21268;-61
2021/04/16 08:08:25;;;;;;;7.75;4.37;;;;;;;10.58;78.01;98481.51;1793373;78;21098;-61
2021/04/16 08:11:06;;;;;;;7.40;4.17;;;;;;;10.59;77.85;98482.36;1812690;78;21138;-60
2021/04/16 08:13:44;;;;;;;;;;;;;;;10.55;77.80;98481.47;1815233;78;21116;-58
2021/04/16 08:16:35;;;;;;;8.73;4.65;;;;;;;10.55;77.57;98480.62;1795419;78;20230;-58
2021/04/16 08:19:21;;;;;;;7.10;5.05;;;;;;;10.51;77.59;98482.77;1816187;77;21115;-58
2021/04/16 08:22:05;;;;;;;8.80;5.72;;;;;;;10.47;77.61;98483.17;1812496;77;21067;-60
2021/04/16 08:24:54;;;;;;;8.75;5.30;;;;;;;10.52;77.56;98478.03;1889763;76;22591;-63
2021/04/16 08:27:43;;;;;;;7.87;5.15;;;;;;;10.47;77.58;98475.87;1858175;77;21276;-59
2021/04/16 08:30:29;;;;;;;6.40;4.05;;;;;;;10.53;77.65;98483.21;1775700;80;21171;-60
2021/04/16 08:33:35;;;;;;;6.50;4.40;;;;;;;10.68;77.29;98481.52;1759824;80;21271;-60
2021/04/16 08:36:34;;;;;;;6.00;4.05;;;;;;;10.78;77.14;98480.68;1759898;80;21126;-61
2021/04/16 08:39:34;;;;;;;7.85;5.10;;;;;;;10.89;76.71;98484.16;1776947;80;21280;-60
2021/04/16 08:42:16;;;;;;;6.83;4.72;;;;;;;11.04;76.27;98486.77;1769000;79;21106;-61
2021/04/16 08:44:49;;;;;;;6.35;4.17;;;;;;;11.13;75.91;98487.63;1772987;80;21700;-59
2021/04/16 08:47:31;;;;;;;6.83;4.67;;;;;;;11.22;75.67;98488.91;1788500;79;21115;-59
2021/04/16 08:50:00;;;;;;;;;;;;;;;11.29;75.21;98493.23;1794028;79;21244;-61
2021/04/16 08:52:33;;;;;;;7.08;3.98;;;;;;;11.36;75.12;98493.66;1787576;78;20160;-61
2021/04/16 08:55:27;;;;;;;7.75;4.53;;;;;;;11.49;74.78;98493.23;1790955;79;21268;-61
2021/04/16 08:58:06;;;;;;;7.10;4.28;;;;;;;11.57;74.22;98491.94;1786161;78;21126;-62
2021/04/16 09:00:43;;;;;;;6.75;4.20;;;;;;;11.55;74.68;98498.42;1772205;80;21107;-60
2021/04/16 09:03:19;;;;;;;6.10;4.53;;;;;;;11.57;74.55;98497.96;1753489;80;21138;-60
2021/04/16 09:06:02;;;;;;;9.18;6.05;;;;;;;11.57;74.25;98500.55;1792213;78;21138;-61
2021/04/16 09:08:41;;;;;;;9.95;6.10;;;;;;;11.53;74.26;98497.55;1797529;78;21118;-62
2021/04/16 09:11:11;;;;;;;15.72;7.33;;;;;;;11.42;74.68;98498.86;1798472;79;21153;-61
2021/04/16 09:13:49;;;;;;;10.58;7.00;;;;;;;11.32;74.95;98497.09;1767066;80;21181;-61
2021/04/16 09:16:25;;;;;;;9.58;6.67;;;;;;;11.27;75.21;98498.81;1766601;80;21130;-61
2021/04/16 09:18:58;;;;;;;11.83;7.78;;;;;;;11.25;75.51;98503.15;1777118;80;21110;-60
2021/04/16 09:21:31;;;;;;;11.08;8.30;;;;;;;11.26;75.52;98500.55;1762466;81;21157;-60
2021/04/16 09:24:08;;;;;;;13.15;8.13;;;;;;;11.25;75.67;98497.98;1761902;81;21171;-61
2021/04/16 09:26:55;;;;;;;12.23;8.85;;;;;;;11.25;75.79;98505.30;1753632;81;21276;-60
2021/04/16 09:29:32;;;;;;;14.10;8.53;;;;;;;11.21;75.83;98494.95;1758700;81;21288;-61
2021/04/16 09:32:06;;;;;;;12.88;8.88;;;;;;;11.15;75.97;98500.13;1751559;80;21349;-65
2021/04/16 09:34:46;;;;;;;14.58;8.28;;;;;;;11.11;76.10;98494.08;1730751;81;21325;-63
2021/04/16 09:37:35;;;;;;;11.85;7.40;;;;;;;11.06;76.37;98499.66;1748515;81;21099;-63
2021/04/16 09:40:24;;;;;;;12.25;7.87;;;;;;;11.00;76.69;98502.25;1803901;77;21273;-62
2021/04/16 09:43:00;;;;;;;12.98;8.55;;;;;;;11.00;77.07;98500.52;1806480;79;21146;-62
2021/04/16 09:45:34;;;;;;;11.75;7.53;;;;;;;11.08;77.16;98507.84;1800914;79;21170;-62
2021/04/16 09:48:09;;;;;;;13.18;7.92;;;;;;;11.15;77.23;98506.58;1803912;77;21130;-64
2021/04/16 09:50:50;;;;;;;14.87;8.60;;;;;;;11.26;77.40;98507.00;1806317;79;21272;-62
2021/04/16 09:53:33;;;;;;;12.73;8.58;;;;;;;11.32;76.87;98508.72;1787114;79;21122;-62
2021/04/16 09:56:16;;;;;;;11.28;7.85;;;;;;;11.36;76.92;98514.34;1806036;79;21165;-62
2021/04/16 09:58:55;;;;;;;18.48;7.62;;;;;;;11.44;76.92;98510.02;1806773;79;21688;-62
2021/04/16 10:01:26;;;;;;;12.28;8.55;;;;;;;11.58;76.78;98512.63;1803334;79;21355;-65
2021/04/16 10:04:02;;;;;;;11.12;7.25;;;;;;;11.73;76.09;98513.05;1807110;79;21154;-64
2021/04/16 10:06:43;;;;;;;12.45;7.15;;;;;;;11.76;76.02;98513.48;1809296;79;21127;-63
2021/04/16 10:09:21;;;;;;;11.05;7.55;;;;;;;11.84;76.27;98513.03;1802098;79;21138;-62
2021/04/16 10:12:16;;;;;;;13.15;7.80;;;;;;;11.96;75.87;98509.17;1805425;79;21299;-62
2021/04/16 10:14:44;;;;;;;16.20;8.98;;;;;;;12.09;75.57;98511.30;1804002;79;21138;-63
2021/04/16 10:17:24;;;;;;;13.08;8.75;;;;;;;12.29;75.29;98512.54;1803632;79;21146;-61
2021/04/16 10:20:12;;;;;;;13.58;8.85;;;;;;;12.40;74.37;98509.91;1801840;79;21253;-62
2021/04/16 10:22:39;;;;;;;12.10;8.20;;;;;;;12.46;74.20;98522.81;1809244;79;21118;-61
2021/04/16 12:40:09;;;;;;;11.45;6.83;;;;;;;12.16;70.63;98526.80;1800119;79;21257;-63
2021/04/16 12:42:37;;;;;;;11.40;7.22;;;;;;;12.06;71.05;98533.27;1795898;79;21257;-63
2021/04/16 12:45:07;;;;;;;10.32;7.10;;;;;;;11.99;71.26;98530.28;1798260;79;21083;-62
2021/04/16 12:47:35;;;;;;;9.78;6.70;;;;;;;11.91;71.54;98528.56;1797072;79;21130;-62
2021/04/16 12:50:06;;;;;;;10.75;7.78;;;;;;;11.83;71.80;98527.69;1795099;79;21269;-62
2021/04/16 12:52:34;;;;;;;13.00;8.05;;;;;;;11.73;72.12;98525.54;1796546;79;21585;-61
2021/04/16 12:55:03;;;;;;;10.08;6.72;;;;;;;11.74;72.35;98528.98;1798214;78;21083;-61
2021/04/16 12:57:45;;;;;;;8.93;6.50;;;;;;;11.72;72.39;98526.81;1796384;79;21245;-60
2021/04/16 13:00:18;;;;;;;9.15;6.22;;;;;;;11.72;72.40;98519.06;1798474;78;21244;-64
2021/04/16 13:02:47;;;;;;;9.25;6.55;;;;;;;11.60;72.60;98526.41;1798377;78;21205;-62
2021/04/16 13:05:17;;;;;;;9.53;6.83;;;;;;;11.54;72.80;98528.13;1797293;79;21133;-59
2021/04/16 13:07:44;;;;;;;9.30;6.58;;;;;;;11.45;72.98;98523.39;1794969;79;21196;-60
2021/04/16 13:10:18;;;;;;;10.35;6.47;;;;;;;11.39;73.30;98521.23;1797081;78;21098;-61
2021/04/16 13:12:46;;;;;;;10.55;7.10;;;;;;;11.32;73.63;98523.37;1798278;79;21072;-60
2021/04/16 13:15:16;;;;;;;10.65;7.05;;;;;;;11.31;73.85;98522.52;1797039;79;21154;-60
2021/04/16 13:17:58;;;;;;;12.37;7.15;;;;;;;11.23;73.92;98520.36;1794976;79;21280;-60
2021/04/16 13:20:28;;;;;;;11.80;7.37;;;;;;;11.19;74.64;98519.91;1795430;79;21150;-62
2021/04/16 13:22:56;;;;;;;11.50;7.30;;;;;;;11.20;75.22;98515.20;1796082;79;21150;-61
2021/04/16 13:25:29;;;;;;;10.85;7.08;;;;;;;11.23;75.51;98516.48;1798486;79;21110;-61
2021/04/16 13:27:57;;;;;;;10.15;6.65;;;;;;;11.12;75.49;98521.64;1728287;81;21328;-60
2021/04/16 13:30:29;;;;;;;9.45;6.90;;;;;;;11.00;75.93;98521.17;1798496;78;21229;-61
2021/04/16 13:33:01;;;;;;;10.55;6.22;;;;;;;10.88;76.41;98520.29;1799245;79;21549;-61
2021/04/16 13:35:37;;;;;;;10.32;7.80;;;;;;;10.89;76.96;98515.14;1795118;79;21304;-61
2021/04/16 13:38:09;;;;;;;10.05;7.25;;;;;;;10.96;77.17;98518.58;1798355;79;21143;-60
2021/04/16 13:40:38;;;;;;;10.05;6.90;;;;;;;11.02;77.11;98522.05;1801578;78;21162;-63
2021/04/16 13:43:06;;;;;;;11.57;7.53;;;;;;;10.96;76.93;98520.73;1794361;78;21103;-63
2021/04/16 13:45:34;;;;;;;10.43;6.80;;;;;;;10.90;77.23;98520.73;1800992;79;21107;-62
2021/04/16 13:48:04;;;;;;;11.25;8.13;;;;;;;10.89;77.25;98520.70;1813928;77;21135;-61
2021/04/16 13:50:32;;;;;;;12.73;7.50;;;;;;;10.91;77.26;98519.86;1812556;79;21178;-61
2021/04/16 13:53:00;;;;;;;11.57;7.55;;;;;;;10.90;77.52;98527.18;1806861;78;21107;-61
2021/04/16 13:55:29;;;;;;;11.55;7.03;;;;;;;10.90;77.70;98516.85;1812650;79;21137;-61
2021/04/16 13:57:57;;;;;;;10.15;7.35;;;;;;;10.83;77.74;98521.56;1789624;79;21160;-61
2021/04/16 14:00:30;;;;;;;12.80;8.25;;;;;;;10.76;78.30;98527.55;1780925;79;21523;-62
2021/04/16 14:03:12;;;;;;;17.98;9.25;;;;;;;10.79;79.19;98517.27;1784034;79;21281;-61
2021/04/16 14:05:48;;;;;;;14.23;9.80;;;;;;;10.67;79.75;98519.80;1797887;79;21115;-60
2021/04/16 14:08:30;;;;;;;14.63;10.18;;;;;;;10.54;80.58;98518.90;1795058;78;21245;-60
2021/04/16 14:10:59;;;;;;;13.70;9.98;;;;;;;10.47;81.01;98516.71;1798817;78;21134;-60
2021/04/16 14:13:29;;;;;;;15.75;9.60;;;;;;;10.41;81.48;98524.00;1796895;78;21281;-61
2021/04/16 14:16:08;;;;;;;14.07;10.38;;;;;;;10.37;81.82;98520.11;1798047;79;21099;-61
2021/04/16 14:18:41;;;;;;;18.87;10.55;;;;;;;10.31;82.01;98514.93;1794621;78;21193;-62
2021/04/16 14:21:16;;;;;;;15.18;11.45;;;;;;;10.30;82.46;98524.80;1797773;78;21111;-62